sensor_id;sensor_type;location;lat;lon;timestamp;P1;durP1;ratioP1;P2;durP2;ratioP2
10041;SDS011;5061;49.068;12.058;2023-02-22T00:02:16;3.63;;;2.47;;
10041;SDS011;5061;49.068;12.058;2023-02-22T00:05:46;2.90;;;2.40;;
10041;SDS011;5061;49.068;12.058;2023-02-22T00:09:06;3.43;;;2.50;;
10041;SDS011;5061;49.068;12.058;2023-02-22T00:12:28;2.53;;;2.23;;
10041;SDS011;5061;49.068;12.058;2023-02-22T00:15:49;3.63;;;2.87;;
10041;SDS011;5061;49.068;12.058;2023-02-22T00:19:09;2.63;;;2.40;;
10041;SDS011;5061;49.068;12.058;2023-02-22T00:22:30;2.13;;;1.93;;
10041;SDS011;5061;49.068;12.058;2023-02-22T00:25:50;2.13;;;1.93;;
10041;SDS011;5061;49.068;12.058;2023-02-22T00:29:11;2.23;;;2.03;;
10041;SDS011;5061;49.068;12.058;2023-02-22T00:32:31;3.13;;;2.60;;
10041;SDS011;5061;49.068;12.058;2023-02-22T00:35:52;3.37;;;2.27;;
10041;SDS011;5061;49.068;12.058;2023-02-22T00:39:14;5.27;;;2.80;;
10041;SDS011;5061;49.068;12.058;2023-02-22T00:42:35;4.40;;;3.27;;
10041;SDS011;5061;49.068;12.058;2023-02-22T00:45:56;6.47;;;3.27;;
10041;SDS011;5061;49.068;12.058;2023-02-22T00:49:17;4.07;;;2.67;;
10041;SDS011;5061;49.068;12.058;2023-02-22T00:52:38;2.90;;;2.40;;
10041;SDS011;5061;49.068;12.058;2023-02-22T00:55:58;2.10;;;1.90;;
10041;SDS011;5061;49.068;12.058;2023-02-22T00:59:19;4.00;;;2.87;;
10041;SDS011;5061;49.068;12.058;2023-02-22T01:02:41;3.90;;;2.60;;
10041;SDS011;5061;49.068;12.058;2023-02-22T01:06:02;3.43;;;2.07;;
10041;SDS011;5061;49.068;12.058;2023-02-22T01:09:22;2.13;;;1.93;;
10041;SDS011;5061;49.068;12.058;2023-02-22T01:12:43;5.13;;;2.20;;
10041;SDS011;5061;49.068;12.058;2023-02-22T01:16:04;2.90;;;1.90;;
10041;SDS011;5061;49.068;12.058;2023-02-22T01:19:27;3.10;;;2.30;;
10041;SDS011;5061;49.068;12.058;2023-02-22T01:22:48;7.60;;;2.37;;
10041;SDS011;5061;49.068;12.058;2023-02-22T01:26:10;2.33;;;2.13;;
10041;SDS011;5061;49.068;12.058;2023-02-22T01:29:30;4.20;;;2.57;;
10041;SDS011;5061;49.068;12.058;2023-02-22T01:32:51;3.90;;;2.90;;
10041;SDS011;5061;49.068;12.058;2023-02-22T01:36:12;3.67;;;2.40;;
10041;SDS011;5061;49.068;12.058;2023-02-22T01:39:33;4.17;;;3.00;;
10041;SDS011;5061;49.068;12.058;2023-02-22T01:42:54;3.50;;;2.50;;
10041;SDS011;5061;49.068;12.058;2023-02-22T01:46:21;3.07;;;2.73;;
10041;SDS011;5061;49.068;12.058;2023-02-22T01:49:44;3.20;;;2.30;;
10041;SDS011;5061;49.068;12.058;2023-02-22T01:53:08;1.60;;;1.50;;
10041;SDS011;5061;49.068;12.058;2023-02-22T01:56:33;2.73;;;1.80;;
10041;SDS011;5061;49.068;12.058;2023-02-22T01:59:58;1.80;;;1.70;;
10041;SDS011;5061;49.068;12.058;2023-02-22T02:03:32;2.77;;;2.17;;
10041;SDS011;5061;49.068;12.058;2023-02-22T02:06:57;3.10;;;2.23;;
10041;SDS011;5061;49.068;12.058;2023-02-22T02:10:23;3.77;;;2.73;;
10041;SDS011;5061;49.068;12.058;2023-02-22T02:13:43;3.80;;;2.50;;
10041;SDS011;5061;49.068;12.058;2023-02-22T02:17:09;6.27;;;3.70;;
10041;SDS011;5061;49.068;12.058;2023-02-22T02:24:31;4.93;;;3.10;;
10041;SDS011;5061;49.068;12.058;2023-02-22T02:35:41;4.93;;;3.50;;
10041;SDS011;5061;49.068;12.058;2023-02-22T02:39:47;3.93;;;3.10;;
10041;SDS011;5061;49.068;12.058;2023-02-22T02:46:59;2.50;;;2.30;;
10041;SDS011;5061;49.068;12.058;2023-02-22T02:50:30;2.57;;;2.37;;
10041;SDS011;5061;49.068;12.058;2023-02-22T02:53:55;2.97;;;2.20;;
10041;SDS011;5061;49.068;12.058;2023-02-22T02:57:17;4.80;;;2.77;;
10041;SDS011;5061;49.068;12.058;2023-02-22T03:00:38;2.37;;;2.17;;
10041;SDS011;5061;49.068;12.058;2023-02-22T03:07:54;1.60;;;1.50;;
10041;SDS011;5061;49.068;12.058;2023-02-22T03:11:36;2.57;;;2.10;;
10041;SDS011;5061;49.068;12.058;2023-02-22T03:26:13;2.93;;;2.73;;
10041;SDS011;5061;49.068;12.058;2023-02-22T03:29:45;3.97;;;3.10;;
10041;SDS011;5061;49.068;12.058;2023-02-22T03:33:11;3.67;;;3.10;;
10041;SDS011;5061;49.068;12.058;2023-02-22T03:36:56;3.23;;;2.47;;
10041;SDS011;5061;49.068;12.058;2023-02-22T03:40:21;3.87;;;2.90;;
10041;SDS011;5061;49.068;12.058;2023-02-22T03:43:54;2.50;;;2.30;;
10041;SDS011;5061;49.068;12.058;2023-02-22T03:47:27;4.00;;;2.40;;
10041;SDS011;5061;49.068;12.058;2023-02-22T03:50:53;2.40;;;2.20;;
10041;SDS011;5061;49.068;12.058;2023-02-22T03:54:14;2.47;;;2.13;;
10041;SDS011;5061;49.068;12.058;2023-02-22T03:57:37;2.33;;;2.13;;
10041;SDS011;5061;49.068;12.058;2023-02-22T04:01:00;3.70;;;2.80;;
10041;SDS011;5061;49.068;12.058;2023-02-22T04:04:23;2.93;;;2.20;;
10041;SDS011;5061;49.068;12.058;2023-02-22T04:07:44;3.97;;;3.00;;
10041;SDS011;5061;49.068;12.058;2023-02-22T04:11:04;4.40;;;2.70;;
10041;SDS011;5061;49.068;12.058;2023-02-22T04:14:25;6.13;;;3.70;;
10041;SDS011;5061;49.068;12.058;2023-02-22T04:17:46;4.93;;;3.50;;
10041;SDS011;5061;49.068;12.058;2023-02-22T04:21:06;7.17;;;4.40;;
10041;SDS011;5061;49.068;12.058;2023-02-22T04:24:28;6.03;;;4.10;;
10041;SDS011;5061;49.068;12.058;2023-02-22T04:27:48;3.70;;;3.27;;
10041;SDS011;5061;49.068;12.058;2023-02-22T04:31:09;4.60;;;3.20;;
10041;SDS011;5061;49.068;12.058;2023-02-22T04:34:30;3.67;;;3.20;;
10041;SDS011;5061;49.068;12.058;2023-02-22T04:37:51;2.70;;;2.50;;
10041;SDS011;5061;49.068;12.058;2023-02-22T04:41:11;3.70;;;3.00;;
10041;SDS011;5061;49.068;12.058;2023-02-22T04:44:32;3.53;;;3.03;;
10041;SDS011;5061;49.068;12.058;2023-02-22T04:47:53;3.20;;;2.90;;
10041;SDS011;5061;49.068;12.058;2023-02-22T04:51:14;4.10;;;2.83;;
10041;SDS011;5061;49.068;12.058;2023-02-22T04:54:35;3.10;;;2.80;;
10041;SDS011;5061;49.068;12.058;2023-02-22T04:57:56;2.70;;;2.37;;
10041;SDS011;5061;49.068;12.058;2023-02-22T05:01:16;3.10;;;2.60;;
10041;SDS011;5061;49.068;12.058;2023-02-22T05:04:37;3.00;;;2.53;;
10041;SDS011;5061;49.068;12.058;2023-02-22T05:07:58;2.87;;;2.60;;
10041;SDS011;5061;49.068;12.058;2023-02-22T05:11:18;3.30;;;2.63;;
10041;SDS011;5061;49.068;12.058;2023-02-22T05:14:39;2.53;;;2.07;;
10041;SDS011;5061;49.068;12.058;2023-02-22T05:18:00;3.43;;;2.60;;
10041;SDS011;5061;49.068;12.058;2023-02-22T05:21:21;1.90;;;1.70;;
10041;SDS011;5061;49.068;12.058;2023-02-22T05:24:42;2.10;;;1.93;;
10041;SDS011;5061;49.068;12.058;2023-02-22T05:28:04;1.93;;;1.83;;
10041;SDS011;5061;49.068;12.058;2023-02-22T05:31:29;1.70;;;1.60;;
10041;SDS011;5061;49.068;12.058;2023-02-22T05:34:50;2.70;;;2.00;;
10041;SDS011;5061;49.068;12.058;2023-02-22T05:38:13;1.87;;;1.73;;
10041;SDS011;5061;49.068;12.058;2023-02-22T05:41:34;2.43;;;2.23;;
10041;SDS011;5061;49.068;12.058;2023-02-22T05:44:55;1.67;;;1.50;;
10041;SDS011;5061;49.068;12.058;2023-02-22T05:48:15;1.67;;;1.50;;
10041;SDS011;5061;49.068;12.058;2023-02-22T05:51:36;2.23;;;2.03;;
10041;SDS011;5061;49.068;12.058;2023-02-22T05:54:57;1.60;;;1.50;;
10041;SDS011;5061;49.068;12.058;2023-02-22T05:58:17;2.70;;;2.10;;
10041;SDS011;5061;49.068;12.058;2023-02-22T06:01:38;1.90;;;1.50;;
10041;SDS011;5061;49.068;12.058;2023-02-22T06:04:58;2.70;;;2.27;;
10041;SDS011;5061;49.068;12.058;2023-02-22T06:08:19;3.20;;;2.50;;
10041;SDS011;5061;49.068;12.058;2023-02-22T06:11:40;4.80;;;3.10;;
10041;SDS011;5061;49.068;12.058;2023-02-22T06:15:00;5.57;;;3.53;;
10041;SDS011;5061;49.068;12.058;2023-02-22T06:18:21;4.50;;;3.80;;
10041;SDS011;5061;49.068;12.058;2023-02-22T06:21:55;4.30;;;3.50;;
10041;SDS011;5061;49.068;12.058;2023-02-22T06:25:20;3.63;;;3.33;;
10041;SDS011;5061;49.068;12.058;2023-02-22T06:28:44;4.57;;;3.63;;
10041;SDS011;5061;49.068;12.058;2023-02-22T06:32:05;3.70;;;3.03;;
10041;SDS011;5061;49.068;12.058;2023-02-22T06:35:25;5.67;;;4.30;;
10041;SDS011;5061;49.068;12.058;2023-02-22T06:38:48;6.83;;;4.47;;
10041;SDS011;5061;49.068;12.058;2023-02-22T06:42:09;5.07;;;3.90;;
10041;SDS011;5061;49.068;12.058;2023-02-22T06:45:29;6.63;;;3.80;;
10041;SDS011;5061;49.068;12.058;2023-02-22T06:48:50;4.27;;;3.43;;
10041;SDS011;5061;49.068;12.058;2023-02-22T06:52:11;3.80;;;3.10;;
10041;SDS011;5061;49.068;12.058;2023-02-22T06:55:32;4.73;;;3.60;;
10041;SDS011;5061;49.068;12.058;2023-02-22T06:58:53;2.93;;;2.30;;
10041;SDS011;5061;49.068;12.058;2023-02-22T07:02:14;3.83;;;3.27;;
10041;SDS011;5061;49.068;12.058;2023-02-22T07:05:35;4.80;;;3.20;;
10041;SDS011;5061;49.068;12.058;2023-02-22T07:08:55;3.60;;;2.87;;
10041;SDS011;5061;49.068;12.058;2023-02-22T07:12:16;3.13;;;2.50;;
10041;SDS011;5061;49.068;12.058;2023-02-22T07:15:37;3.30;;;2.23;;
10041;SDS011;5061;49.068;12.058;2023-02-22T07:18:57;2.57;;;2.30;;
10041;SDS011;5061;49.068;12.058;2023-02-22T07:22:19;3.27;;;2.30;;
10041;SDS011;5061;49.068;12.058;2023-02-22T07:25:40;4.70;;;3.10;;
10041;SDS011;5061;49.068;12.058;2023-02-22T07:29:00;5.97;;;3.33;;
10041;SDS011;5061;49.068;12.058;2023-02-22T07:32:21;4.37;;;3.07;;
10041;SDS011;5061;49.068;12.058;2023-02-22T07:35:43;4.10;;;3.17;;
10041;SDS011;5061;49.068;12.058;2023-02-22T07:39:05;4.63;;;3.17;;
10041;SDS011;5061;49.068;12.058;2023-02-22T07:42:27;4.33;;;2.93;;
10041;SDS011;5061;49.068;12.058;2023-02-22T07:45:49;3.77;;;2.70;;
10041;SDS011;5061;49.068;12.058;2023-02-22T07:49:10;4.70;;;3.30;;
10041;SDS011;5061;49.068;12.058;2023-02-22T07:52:31;3.70;;;2.63;;
10041;SDS011;5061;49.068;12.058;2023-02-22T07:55:52;5.80;;;3.40;;
10041;SDS011;5061;49.068;12.058;2023-02-22T07:59:14;4.93;;;3.00;;
10041;SDS011;5061;49.068;12.058;2023-02-22T08:02:35;3.07;;;2.57;;
10041;SDS011;5061;49.068;12.058;2023-02-22T08:05:56;5.43;;;3.00;;
10041;SDS011;5061;49.068;12.058;2023-02-22T08:09:19;4.33;;;3.10;;
10041;SDS011;5061;49.068;12.058;2023-02-22T08:12:40;7.10;;;4.37;;
10041;SDS011;5061;49.068;12.058;2023-02-22T08:16:00;4.30;;;3.00;;
10041;SDS011;5061;49.068;12.058;2023-02-22T08:19:21;3.83;;;3.30;;
10041;SDS011;5061;49.068;12.058;2023-02-22T08:22:42;3.33;;;2.90;;
10041;SDS011;5061;49.068;12.058;2023-02-22T08:26:04;4.67;;;3.37;;
10041;SDS011;5061;49.068;12.058;2023-02-22T08:29:26;4.60;;;3.10;;
10041;SDS011;5061;49.068;12.058;2023-02-22T08:32:52;3.47;;;2.90;;
10041;SDS011;5061;49.068;12.058;2023-02-22T08:36:13;5.30;;;3.13;;
10041;SDS011;5061;49.068;12.058;2023-02-22T08:39:33;4.97;;;3.20;;
10041;SDS011;5061;49.068;12.058;2023-02-22T08:42:54;7.43;;;3.77;;
10041;SDS011;5061;49.068;12.058;2023-02-22T08:46:15;3.53;;;2.70;;
10041;SDS011;5061;49.068;12.058;2023-02-22T08:49:36;3.70;;;3.20;;
10041;SDS011;5061;49.068;12.058;2023-02-22T08:52:57;4.63;;;3.40;;
10041;SDS011;5061;49.068;12.058;2023-02-22T08:56:19;3.67;;;3.23;;
10041;SDS011;5061;49.068;12.058;2023-02-22T08:59:40;3.30;;;2.97;;
10041;SDS011;5061;49.068;12.058;2023-02-22T09:03:03;3.50;;;2.60;;
10041;SDS011;5061;49.068;12.058;2023-02-22T09:06:25;3.37;;;3.07;;
10041;SDS011;5061;49.068;12.058;2023-02-22T09:09:46;3.67;;;3.07;;
10041;SDS011;5061;49.068;12.058;2023-02-22T09:13:06;4.90;;;3.30;;
10041;SDS011;5061;49.068;12.058;2023-02-22T09:16:27;3.47;;;2.77;;
10041;SDS011;5061;49.068;12.058;2023-02-22T09:19:48;6.53;;;4.50;;
10041;SDS011;5061;49.068;12.058;2023-02-22T09:23:09;5.87;;;3.97;;
10041;SDS011;5061;49.068;12.058;2023-02-22T09:26:30;6.93;;;4.90;;
10041;SDS011;5061;49.068;12.058;2023-02-22T09:29:50;7.67;;;5.60;;
10041;SDS011;5061;49.068;12.058;2023-02-22T09:33:13;8.90;;;5.63;;
10041;SDS011;5061;49.068;12.058;2023-02-22T09:36:35;9.23;;;5.23;;
10041;SDS011;5061;49.068;12.058;2023-02-22T09:39:55;4.73;;;3.63;;
10041;SDS011;5061;49.068;12.058;2023-02-22T09:46:51;9.37;;;5.63;;
10041;SDS011;5061;49.068;12.058;2023-02-22T09:50:16;11.83;;;7.63;;
10041;SDS011;5061;49.068;12.058;2023-02-22T09:53:42;14.70;;;6.70;;
10041;SDS011;5061;49.068;12.058;2023-02-22T09:57:15;14.57;;;6.93;;
10041;SDS011;5061;49.068;12.058;2023-02-22T10:00:57;18.30;;;9.20;;
10041;SDS011;5061;49.068;12.058;2023-02-22T10:08:08;28.27;;;12.37;;
10041;SDS011;5061;49.068;12.058;2023-02-22T10:11:51;19.57;;;10.07;;
10041;SDS011;5061;49.068;12.058;2023-02-22T10:18:53;17.60;;;8.90;;
10041;SDS011;5061;49.068;12.058;2023-02-22T10:26:06;13.83;;;8.43;;
10041;SDS011;5061;49.068;12.058;2023-02-22T10:29:35;12.57;;;6.83;;
10041;SDS011;5061;49.068;12.058;2023-02-22T10:33:13;9.87;;;6.67;;
10041;SDS011;5061;49.068;12.058;2023-02-22T10:36:42;11.27;;;6.37;;
10041;SDS011;5061;49.068;12.058;2023-02-22T10:40:14;10.30;;;6.60;;
10041;SDS011;5061;49.068;12.058;2023-02-22T10:43:37;10.87;;;6.30;;
10041;SDS011;5061;49.068;12.058;2023-02-22T10:47:00;10.27;;;5.77;;
10041;SDS011;5061;49.068;12.058;2023-02-22T10:50:27;8.43;;;5.23;;
10041;SDS011;5061;49.068;12.058;2023-02-22T10:53:54;6.43;;;5.30;;
10041;SDS011;5061;49.068;12.058;2023-02-22T10:57:30;8.23;;;5.10;;
10041;SDS011;5061;49.068;12.058;2023-02-22T11:00:54;5.40;;;4.03;;
10041;SDS011;5061;49.068;12.058;2023-02-22T11:04:16;8.10;;;5.30;;
10041;SDS011;5061;49.068;12.058;2023-02-22T11:07:38;6.13;;;4.83;;
10041;SDS011;5061;49.068;12.058;2023-02-22T11:11:02;7.37;;;4.90;;
10041;SDS011;5061;49.068;12.058;2023-02-22T11:14:46;6.20;;;4.43;;
10041;SDS011;5061;49.068;12.058;2023-02-22T11:18:15;4.60;;;3.80;;
10041;SDS011;5061;49.068;12.058;2023-02-22T11:21:42;5.90;;;4.53;;
10041;SDS011;5061;49.068;12.058;2023-02-22T11:25:04;4.70;;;4.07;;
10041;SDS011;5061;49.068;12.058;2023-02-22T11:28:27;6.73;;;4.63;;
10041;SDS011;5061;49.068;12.058;2023-02-22T11:31:52;4.77;;;4.00;;
10041;SDS011;5061;49.068;12.058;2023-02-22T11:38:53;5.70;;;4.13;;
10041;SDS011;5061;49.068;12.058;2023-02-22T11:42:25;4.97;;;4.30;;
10041;SDS011;5061;49.068;12.058;2023-02-22T11:46:30;4.47;;;3.97;;
10041;SDS011;5061;49.068;12.058;2023-02-22T11:49:43;4.97;;;4.10;;
10041;SDS011;5061;49.068;12.058;2023-02-22T11:54:06;3.90;;;3.37;;
10041;SDS011;5061;49.068;12.058;2023-02-22T11:57:22;4.67;;;3.60;;
10041;SDS011;5061;49.068;12.058;2023-02-22T12:01:17;4.07;;;3.30;;
10041;SDS011;5061;49.068;12.058;2023-02-22T12:08:06;4.33;;;3.70;;
10041;SDS011;5061;49.068;12.058;2023-02-22T12:15:22;4.10;;;3.63;;
10041;SDS011;5061;49.068;12.058;2023-02-22T12:22:06;3.83;;;3.20;;
10041;SDS011;5061;49.068;12.058;2023-02-22T12:25:53;3.63;;;2.70;;
10041;SDS011;5061;49.068;12.058;2023-02-22T12:29:38;4.73;;;3.73;;
10041;SDS011;5061;49.068;12.058;2023-02-22T12:33:16;10.90;;;3.87;;
10041;SDS011;5061;49.068;12.058;2023-02-22T12:36:48;4.80;;;3.57;;
10041;SDS011;5061;49.068;12.058;2023-02-22T12:40:20;3.20;;;2.80;;
10041;SDS011;5061;49.068;12.058;2023-02-22T12:43:53;3.30;;;3.00;;
10041;SDS011;5061;49.068;12.058;2023-02-22T12:47:28;4.00;;;3.20;;
10041;SDS011;5061;49.068;12.058;2023-02-22T13:01:49;3.70;;;2.93;;
10041;SDS011;5061;49.068;12.058;2023-02-22T13:05:13;2.10;;;1.90;;
10041;SDS011;5061;49.068;12.058;2023-02-22T13:08:40;2.40;;;2.20;;
10041;SDS011;5061;49.068;12.058;2023-02-22T13:12:36;3.57;;;2.80;;
10041;SDS011;5061;49.068;12.058;2023-02-22T13:27:20;2.77;;;2.00;;
10041;SDS011;5061;49.068;12.058;2023-02-22T13:31:10;2.33;;;2.13;;
10041;SDS011;5061;49.068;12.058;2023-02-22T13:49:28;3.50;;;2.67;;
10041;SDS011;5061;49.068;12.058;2023-02-22T13:53:09;4.10;;;2.70;;
10041;SDS011;5061;49.068;12.058;2023-02-22T13:56:33;3.00;;;2.37;;
10041;SDS011;5061;49.068;12.058;2023-02-22T14:03:34;2.03;;;1.83;;
10041;SDS011;5061;49.068;12.058;2023-02-22T14:10:58;2.50;;;2.30;;
10041;SDS011;5061;49.068;12.058;2023-02-22T14:14:20;3.40;;;2.37;;
10041;SDS011;5061;49.068;12.058;2023-02-22T14:17:41;1.97;;;1.77;;
10041;SDS011;5061;49.068;12.058;2023-02-22T14:21:07;2.20;;;2.00;;
10041;SDS011;5061;49.068;12.058;2023-02-22T14:24:42;1.70;;;1.53;;
10041;SDS011;5061;49.068;12.058;2023-02-22T14:28:06;2.57;;;1.90;;
10041;SDS011;5061;49.068;12.058;2023-02-22T14:35:12;1.80;;;1.50;;
10041;SDS011;5061;49.068;12.058;2023-02-22T14:38:35;1.40;;;1.30;;
10041;SDS011;5061;49.068;12.058;2023-02-22T14:45:56;2.63;;;1.80;;
10041;SDS011;5061;49.068;12.058;2023-02-22T14:49:20;1.57;;;1.20;;
10041;SDS011;5061;49.068;12.058;2023-02-22T14:52:44;1.60;;;1.27;;
10041;SDS011;5061;49.068;12.058;2023-02-22T14:56:31;1.20;;;1.10;;
10041;SDS011;5061;49.068;12.058;2023-02-22T15:06:43;1.40;;;1.13;;
10041;SDS011;5061;49.068;12.058;2023-02-22T15:13:47;1.10;;;1.00;;
10041;SDS011;5061;49.068;12.058;2023-02-22T15:17:17;1.37;;;1.27;;
10041;SDS011;5061;49.068;12.058;2023-02-22T15:20:40;1.53;;;1.43;;
10041;SDS011;5061;49.068;12.058;2023-02-22T15:24:02;1.70;;;1.07;;
10041;SDS011;5061;49.068;12.058;2023-02-22T15:27:25;1.20;;;1.10;;
10041;SDS011;5061;49.068;12.058;2023-02-22T15:30:47;1.43;;;1.20;;
10041;SDS011;5061;49.068;12.058;2023-02-22T15:34:09;1.63;;;1.40;;
10041;SDS011;5061;49.068;12.058;2023-02-22T15:37:46;1.50;;;1.40;;
10041;SDS011;5061;49.068;12.058;2023-02-22T15:41:07;1.77;;;1.53;;
10041;SDS011;5061;49.068;12.058;2023-02-22T15:44:40;2.00;;;1.60;;
10041;SDS011;5061;49.068;12.058;2023-02-22T15:48:02;1.90;;;1.57;;
10041;SDS011;5061;49.068;12.058;2023-02-22T15:51:23;1.50;;;1.40;;
10041;SDS011;5061;49.068;12.058;2023-02-22T15:54:49;3.10;;;1.73;;
10041;SDS011;5061;49.068;12.058;2023-02-22T15:58:11;1.67;;;1.57;;
10041;SDS011;5061;49.068;12.058;2023-02-22T16:01:44;2.00;;;1.40;;
10041;SDS011;5061;49.068;12.058;2023-02-22T16:05:08;1.70;;;1.37;;
10041;SDS011;5061;49.068;12.058;2023-02-22T16:08:35;3.53;;;1.80;;
10041;SDS011;5061;49.068;12.058;2023-02-22T16:12:22;1.57;;;1.47;;
10041;SDS011;5061;49.068;12.058;2023-02-22T16:16:31;2.60;;;1.70;;
10041;SDS011;5061;49.068;12.058;2023-02-22T16:19:44;2.30;;;1.83;;
10041;SDS011;5061;49.068;12.058;2023-02-22T16:23:20;3.10;;;2.70;;
10041;SDS011;5061;49.068;12.058;2023-02-22T16:26:59;3.87;;;2.63;;
10041;SDS011;5061;49.068;12.058;2023-02-22T16:30:30;5.47;;;2.90;;
10041;SDS011;5061;49.068;12.058;2023-02-22T16:33:52;3.27;;;2.93;;
10041;SDS011;5061;49.068;12.058;2023-02-22T16:37:21;4.93;;;3.67;;
10041;SDS011;5061;49.068;12.058;2023-02-22T16:40:55;4.70;;;3.20;;
10041;SDS011;5061;49.068;12.058;2023-02-22T16:44:17;8.27;;;3.87;;
10041;SDS011;5061;49.068;12.058;2023-02-22T16:47:37;4.43;;;3.33;;
10041;SDS011;5061;49.068;12.058;2023-02-22T16:51:05;3.40;;;2.50;;
10041;SDS011;5061;49.068;12.058;2023-02-22T16:54:33;3.43;;;2.50;;
10041;SDS011;5061;49.068;12.058;2023-02-22T16:57:58;3.00;;;2.57;;
10041;SDS011;5061;49.068;12.058;2023-02-22T17:01:19;4.20;;;2.50;;
10041;SDS011;5061;49.068;12.058;2023-02-22T17:04:42;3.60;;;3.07;;
10041;SDS011;5061;49.068;12.058;2023-02-22T17:08:08;5.10;;;3.17;;
10041;SDS011;5061;49.068;12.058;2023-02-22T17:11:28;4.60;;;3.10;;
10041;SDS011;5061;49.068;12.058;2023-02-22T17:14:52;2.37;;;2.17;;
10041;SDS011;5061;49.068;12.058;2023-02-22T17:18:13;3.40;;;2.83;;
10041;SDS011;5061;49.068;12.058;2023-02-22T17:21:36;2.90;;;2.60;;
10041;SDS011;5061;49.068;12.058;2023-02-22T17:24:56;5.17;;;2.80;;
10041;SDS011;5061;49.068;12.058;2023-02-22T17:28:17;3.43;;;2.50;;
10041;SDS011;5061;49.068;12.058;2023-02-22T17:31:38;5.73;;;3.80;;
10041;SDS011;5061;49.068;12.058;2023-02-22T17:34:58;6.90;;;4.10;;
10041;SDS011;5061;49.068;12.058;2023-02-22T17:38:19;4.90;;;2.80;;
10041;SDS011;5061;49.068;12.058;2023-02-22T17:41:47;6.40;;;4.40;;
10041;SDS011;5061;49.068;12.058;2023-02-22T17:45:13;4.77;;;3.97;;
10041;SDS011;5061;49.068;12.058;2023-02-22T17:48:34;6.33;;;4.00;;
10041;SDS011;5061;49.068;12.058;2023-02-22T17:51:58;7.60;;;4.50;;
10041;SDS011;5061;49.068;12.058;2023-02-22T17:55:21;4.20;;;3.53;;
10041;SDS011;5061;49.068;12.058;2023-02-22T17:58:52;7.03;;;4.50;;
10041;SDS011;5061;49.068;12.058;2023-02-22T18:02:14;6.97;;;4.07;;
10041;SDS011;5061;49.068;12.058;2023-02-22T18:05:42;7.10;;;5.03;;
10041;SDS011;5061;49.068;12.058;2023-02-22T18:09:05;7.93;;;5.10;;
10041;SDS011;5061;49.068;12.058;2023-02-22T18:12:29;8.63;;;5.63;;
10041;SDS011;5061;49.068;12.058;2023-02-22T18:15:55;9.10;;;5.83;;
10041;SDS011;5061;49.068;12.058;2023-02-22T18:19:19;9.83;;;6.43;;
10041;SDS011;5061;49.068;12.058;2023-02-22T18:22:44;10.60;;;6.50;;
10041;SDS011;5061;49.068;12.058;2023-02-22T18:26:05;6.40;;;4.57;;
10041;SDS011;5061;49.068;12.058;2023-02-22T18:29:25;4.80;;;3.93;;
10041;SDS011;5061;49.068;12.058;2023-02-22T18:32:47;5.47;;;3.90;;
10041;SDS011;5061;49.068;12.058;2023-02-22T18:36:09;6.40;;;4.20;;
10041;SDS011;5061;49.068;12.058;2023-02-22T18:39:31;6.93;;;4.57;;
10041;SDS011;5061;49.068;12.058;2023-02-22T18:42:59;8.17;;;5.97;;
10041;SDS011;5061;49.068;12.058;2023-02-22T18:46:25;9.87;;;6.87;;
10041;SDS011;5061;49.068;12.058;2023-02-22T18:49:48;7.93;;;6.43;;
10041;SDS011;5061;49.068;12.058;2023-02-22T18:53:09;5.87;;;4.87;;
10041;SDS011;5061;49.068;12.058;2023-02-22T18:56:30;6.20;;;4.87;;
10041;SDS011;5061;49.068;12.058;2023-02-22T18:59:55;5.13;;;4.63;;
10041;SDS011;5061;49.068;12.058;2023-02-22T19:03:16;5.17;;;4.07;;
10041;SDS011;5061;49.068;12.058;2023-02-22T19:06:39;4.97;;;3.87;;
10041;SDS011;5061;49.068;12.058;2023-02-22T19:10:02;6.73;;;4.37;;
10041;SDS011;5061;49.068;12.058;2023-02-22T19:13:24;5.90;;;4.50;;
10041;SDS011;5061;49.068;12.058;2023-02-22T19:16:44;5.40;;;3.90;;
10041;SDS011;5061;49.068;12.058;2023-02-22T19:20:07;4.60;;;3.60;;
10041;SDS011;5061;49.068;12.058;2023-02-22T19:23:29;4.23;;;3.63;;
10041;SDS011;5061;49.068;12.058;2023-02-22T19:26:51;4.30;;;3.60;;
10041;SDS011;5061;49.068;12.058;2023-02-22T19:30:16;4.03;;;3.33;;
10041;SDS011;5061;49.068;12.058;2023-02-22T19:33:36;4.50;;;3.80;;
10041;SDS011;5061;49.068;12.058;2023-02-22T19:36:57;3.80;;;3.40;;
10041;SDS011;5061;49.068;12.058;2023-02-22T19:40:27;6.30;;;3.40;;
10041;SDS011;5061;49.068;12.058;2023-02-22T19:44:02;3.90;;;3.43;;
10041;SDS011;5061;49.068;12.058;2023-02-22T19:51:12;5.17;;;3.80;;
10041;SDS011;5061;49.068;12.058;2023-02-22T19:54:51;5.83;;;4.03;;
10041;SDS011;5061;49.068;12.058;2023-02-22T19:58:12;6.27;;;4.03;;
10041;SDS011;5061;49.068;12.058;2023-02-22T20:01:40;4.00;;;3.60;;
10041;SDS011;5061;49.068;12.058;2023-02-22T20:05:08;6.57;;;5.20;;
10041;SDS011;5061;49.068;12.058;2023-02-22T20:08:38;6.57;;;4.67;;
10041;SDS011;5061;49.068;12.058;2023-02-22T20:12:02;4.70;;;3.70;;
10041;SDS011;5061;49.068;12.058;2023-02-22T20:15:23;4.47;;;3.67;;
10041;SDS011;5061;49.068;12.058;2023-02-22T20:22:27;3.97;;;3.30;;
10041;SDS011;5061;49.068;12.058;2023-02-22T20:25:51;6.00;;;3.70;;
10041;SDS011;5061;49.068;12.058;2023-02-22T20:29:21;4.20;;;3.50;;
10041;SDS011;5061;49.068;12.058;2023-02-22T20:32:55;3.50;;;2.93;;
10041;SDS011;5061;49.068;12.058;2023-02-22T20:36:17;3.30;;;2.83;;
10041;SDS011;5061;49.068;12.058;2023-02-22T20:39:38;4.80;;;3.43;;
10041;SDS011;5061;49.068;12.058;2023-02-22T20:42:59;5.63;;;3.87;;
10041;SDS011;5061;49.068;12.058;2023-02-22T20:46:24;4.47;;;3.27;;
10041;SDS011;5061;49.068;12.058;2023-02-22T20:49:46;5.33;;;4.27;;
10041;SDS011;5061;49.068;12.058;2023-02-22T20:53:07;5.20;;;3.40;;
10041;SDS011;5061;49.068;12.058;2023-02-22T20:56:34;5.53;;;4.17;;
10041;SDS011;5061;49.068;12.058;2023-02-22T20:59:58;3.77;;;3.37;;
10041;SDS011;5061;49.068;12.058;2023-02-22T21:03:19;7.83;;;3.67;;
10041;SDS011;5061;49.068;12.058;2023-02-22T21:06:49;3.73;;;3.20;;
10041;SDS011;5061;49.068;12.058;2023-02-22T21:13:55;3.97;;;3.13;;
10041;SDS011;5061;49.068;12.058;2023-02-22T21:17:37;3.97;;;3.20;;
10041;SDS011;5061;49.068;12.058;2023-02-22T21:21:04;7.50;;;3.93;;
10041;SDS011;5061;49.068;12.058;2023-02-22T21:24:29;5.43;;;3.37;;
10041;SDS011;5061;49.068;12.058;2023-02-22T21:27:49;3.10;;;2.80;;
10041;SDS011;5061;49.068;12.058;2023-02-22T21:31:11;3.03;;;2.50;;
10041;SDS011;5061;49.068;12.058;2023-02-22T21:34:34;5.20;;;3.10;;
10041;SDS011;5061;49.068;12.058;2023-02-22T21:37:55;2.47;;;2.27;;
10041;SDS011;5061;49.068;12.058;2023-02-22T21:41:20;4.03;;;3.00;;
10041;SDS011;5061;49.068;12.058;2023-02-22T21:44:58;7.00;;;3.87;;
10041;SDS011;5061;49.068;12.058;2023-02-22T21:48:22;5.50;;;3.60;;
10041;SDS011;5061;49.068;12.058;2023-02-22T21:51:45;7.20;;;4.60;;
10041;SDS011;5061;49.068;12.058;2023-02-22T21:55:06;7.80;;;3.40;;
10041;SDS011;5061;49.068;12.058;2023-02-22T21:58:27;4.83;;;3.60;;
10041;SDS011;5061;49.068;12.058;2023-02-22T22:01:50;6.10;;;4.50;;
10041;SDS011;5061;49.068;12.058;2023-02-22T22:05:14;10.40;;;4.60;;
10041;SDS011;5061;49.068;12.058;2023-02-22T22:08:37;8.20;;;5.03;;
10041;SDS011;5061;49.068;12.058;2023-02-22T22:12:00;8.43;;;4.23;;
10041;SDS011;5061;49.068;12.058;2023-02-22T22:15:24;3.77;;;3.37;;
10041;SDS011;5061;49.068;12.058;2023-02-22T22:18:46;3.80;;;3.20;;
10041;SDS011;5061;49.068;12.058;2023-02-22T22:22:07;3.83;;;3.10;;
10041;SDS011;5061;49.068;12.058;2023-02-22T22:25:28;3.70;;;3.40;;
10041;SDS011;5061;49.068;12.058;2023-02-22T22:28:50;4.70;;;3.83;;
10041;SDS011;5061;49.068;12.058;2023-02-22T22:32:12;4.03;;;3.60;;
10041;SDS011;5061;49.068;12.058;2023-02-22T22:35:36;3.33;;;2.90;;
10041;SDS011;5061;49.068;12.058;2023-02-22T22:38:58;5.03;;;3.30;;
10041;SDS011;5061;49.068;12.058;2023-02-22T22:42:18;4.70;;;3.93;;
10041;SDS011;5061;49.068;12.058;2023-02-22T22:45:39;3.30;;;2.70;;
10041;SDS011;5061;49.068;12.058;2023-02-22T22:49:00;5.33;;;3.30;;